Time;durP1;ratioP1;P1;durP2;ratioP2;P2;SDS_P1;SDS_P2;PMS_P1;PMS_P2;Temp;Humidity;BMP_temperature;BMP_pressure;BME280_temperature;BME280_humidity;BME280_pressure;Samples;Min_cycle;Max_cycle;Signal;HPM_P1;HPM_P2
2022/09/08 00:00:36;;;;;;;9.52;1.90;;;20.20;99.90;;;;;;5052572;28;20037;-85
2022/09/08 00:03:05;;;;;;;8.13;2.05;;;20.30;99.90;;;;;;5052473;28;20047;-85
2022/09/08 00:05:36;;;;;;;6.15;2.30;;;20.30;99.90;;;;;;5053183;28;20028;-84
2022/09/08 00:08:02;;;;;;;3.63;1.70;;;20.30;99.90;;;;;;5053497;28;20033;-83
2022/09/08 00:10:30;;;;;;;8.20;2.53;;;20.20;99.90;;;;;;5054447;28;20264;-85
2022/09/08 00:12:58;;;;;;;6.05;1.83;;;20.20;99.90;;;;;;5053873;28;20067;-85
2022/09/08 00:15:25;;;;;;;8.63;2.47;;;20.10;99.90;;;;;;5052314;28;20037;-85
2022/09/08 00:17:51;;;;;;;11.10;2.78;;;19.90;99.90;;;;;;5049493;28;20471;-85
2022/09/08 00:20:17;;;;;;;8.52;2.08;;;19.70;99.90;;;;;;5059099;28;20047;-84
2022/09/08 00:22:43;;;;;;;7.85;1.90;;;19.60;99.90;;;;;;5068644;28;20489;-85
2022/09/08 00:25:08;;;;;;;3.95;1.73;;;19.60;99.90;;;;;;5051758;28;20021;-84
2022/09/08 00:27:34;;;;;;;13.40;2.90;;;19.40;99.90;;;;;;5053257;28;20033;-85
2022/09/08 00:30:00;;;;;;;7.82;2.50;;;19.40;99.90;;;;;;5068965;28;20450;-85
2022/09/08 00:32:26;;;;;;;8.02;2.25;;;19.20;99.90;;;;;;5054640;28;20431;-84
2022/09/08 00:34:51;;;;;;;7.13;2.10;;;19.30;99.90;;;;;;5054056;28;20029;-85
2022/09/08 00:37:18;;;;;;;9.50;1.90;;;19.50;99.90;;;;;;5052992;28;20021;-84
2022/09/08 00:39:44;;;;;;;5.28;1.88;;;19.40;99.90;;;;;;5057245;28;20043;-85
2022/09/08 00:42:10;;;;;;;13.70;2.78;;;19.30;99.90;;;;;;5056961;28;20079;-86
2022/09/08 00:44:51;;;;;;;11.48;2.13;;;19.50;99.90;;;;;;5054099;28;20021;-85
2022/09/08 00:47:26;;;;;;;8.10;1.80;;;19.40;99.90;;;;;;5054900;28;20060;-85
2022/09/08 00:50:02;;;;;;;10.88;2.28;;;19.40;99.90;;;;;;5052854;28;20025;-85
2022/09/08 00:52:35;;;;;;;7.75;1.80;;;19.40;99.90;;;;;;5053328;28;20097;-83
2022/09/08 00:55:01;;;;;;;8.80;2.35;;;19.20;99.90;;;;;;5052502;28;20028;-83
2022/09/08 00:57:27;;;;;;;10.20;2.15;;;19.10;99.90;;;;;;5055388;28;20041;-84
2022/09/08 00:59:54;;;;;;;9.40;2.55;;;19.10;99.90;;;;;;5055483;28;20017;-84
2022/09/08 01:02:25;;;;;;;8.80;2.13;;;18.90;99.90;;;;;;5054632;28;20417;-84
2022/09/08 01:04:55;;;;;;;6.25;1.75;;;18.90;99.90;;;;;;5053089;28;20036;-84
2022/09/08 01:13:20;;;;;;;11.68;2.22;;;19.20;99.90;;;;;;5056693;28;20040;-85
2022/09/08 01:15:46;;;;;;;7.22;1.95;;;19.50;99.90;;;;;;5062649;28;20029;-84
2022/09/08 01:18:12;;;;;;;6.68;1.50;;;19.30;99.90;;;;;;5065091;28;20032;-84
2022/09/08 01:20:49;;;;;;;8.52;1.98;;;19.20;99.90;;;;;;5063990;28;20025;-85
2022/09/08 01:23:26;;;;;;;8.73;1.90;;;19.20;99.90;;;;;;5078054;28;20052;-84
2022/09/08 01:25:55;;;;;;;10.48;2.10;;;19.00;99.90;;;;;;5065187;28;20060;-84
2022/09/08 01:28:46;;;;;;;8.38;1.80;;;19.00;99.90;;;;;;5064748;28;20083;-84
2022/09/08 01:31:13;;;;;;;6.13;1.90;;;19.00;99.90;;;;;;5057260;28;20021;-84
2022/09/08 01:33:40;;;;;;;4.88;1.67;;;19.10;99.90;;;;;;5058188;28;20027;-83
2022/09/08 01:36:11;;;;;;;10.07;2.17;;;18.80;99.90;;;;;;5056530;28;20346;-83
2022/09/08 01:38:37;;;;;;;5.80;2.03;;;18.80;99.90;;;;;;5058324;28;20025;-83
2022/09/08 01:41:03;;;;;;;4.38;1.83;;;18.90;99.90;;;;;;5055366;28;20032;-83
2022/09/08 01:43:29;;;;;;;4.95;2.00;;;18.80;99.90;;;;;;5056215;28;20029;-82
2022/09/08 01:45:56;;;;;;;9.48;1.85;;;18.80;99.90;;;;;;5056275;28;20423;-82
2022/09/08 01:48:22;;;;;;;6.55;2.03;;;18.60;99.90;;;;;;5054553;28;20025;-82
2022/09/08 01:50:49;;;;;;;10.02;2.72;;;18.40;99.90;;;;;;5057510;28;20036;-83
2022/09/08 01:53:15;;;;;;;9.73;2.10;;;18.30;99.90;;;;;;5058439;28;20048;-82
2022/09/08 01:55:40;;;;;;;12.15;2.83;;;18.30;99.90;;;;;;5060259;28;20033;-83
2022/09/08 01:58:06;;;;;;;10.05;2.38;;;18.30;99.90;;;;;;5056779;28;20033;-82
2022/09/08 02:00:32;;;;;;;5.95;2.30;;;18.20;99.90;;;;;;5058063;28;20390;-83
2022/09/08 02:02:58;;;;;;;6.35;1.85;;;18.10;99.90;;;;;;5059544;28;20517;-83
2022/09/08 02:05:24;;;;;;;11.82;2.70;;;18.20;99.90;;;;;;5055352;28;20456;-83
2022/09/08 02:07:50;;;;;;;8.52;2.28;;;18.30;99.90;;;;;;5055925;28;20029;-83
2022/09/08 02:10:16;;;;;;;10.70;2.15;;;18.20;99.90;;;;;;5058404;28;20108;-83
2022/09/08 02:12:41;;;;;;;9.27;2.70;;;18.10;99.90;;;;;;5056436;28;20029;-83
2022/09/08 02:15:11;;;;;;;7.20;2.40;;;17.90;99.90;;;;;;5058197;28;20465;-83
2022/09/08 02:17:37;;;;;;;7.35;2.05;;;17.90;99.90;;;;;;5057132;28;20033;-83
2022/09/08 02:20:03;;;;;;;4.82;2.03;;;18.00;99.90;;;;;;5055821;28;20025;-81
2022/09/08 02:22:30;;;;;;;11.45;2.28;;;17.90;99.90;;;;;;5070528;28;20119;-78
2022/09/08 02:24:56;;;;;;;8.20;2.60;;;17.90;99.90;;;;;;5055070;28;20064;-78
2022/09/08 02:27:22;;;;;;;8.27;2.35;;;17.80;99.90;;;;;;5054941;28;20494;-78
2022/09/08 02:29:49;;;;;;;11.75;2.83;;;17.90;99.90;;;;;;5055204;28;20124;-78
2022/09/08 02:32:15;;;;;;;8.50;2.28;;;17.80;99.90;;;;;;5054994;28;20120;-78
2022/09/08 02:34:41;;;;;;;14.10;3.20;;;17.90;99.90;;;;;;5055139;28;20056;-79
2022/09/08 02:37:07;;;;;;;8.80;2.80;;;17.90;99.90;;;;;;5054675;28;20017;-79
2022/09/08 02:39:32;;;;;;;6.57;2.60;;;17.80;99.90;;;;;;5055168;28;20036;-79
2022/09/08 02:41:58;;;;;;;8.10;3.17;;;17.90;99.90;;;;;;5054959;28;20571;-79
2022/09/08 02:44:24;;;;;;;10.10;2.80;;;17.80;99.90;;;;;;5054392;28;20040;-79
2022/09/08 02:46:50;;;;;;;8.63;3.08;;;17.90;99.90;;;;;;5053838;28;20020;-80
2022/09/08 02:49:16;;;;;;;8.00;2.72;;;17.50;99.90;;;;;;5054667;28;20029;-79
2022/09/08 02:51:43;;;;;;;7.75;2.35;;;17.40;99.90;;;;;;5055123;28;20080;-79
2022/09/08 02:54:09;;;;;;;13.15;2.97;;;17.40;99.90;;;;;;5054732;28;20029;-83
2022/09/08 02:56:35;;;;;;;11.85;2.92;;;17.60;99.90;;;;;;5054540;28;20029;-84
2022/09/08 02:59:01;;;;;;;8.70;3.00;;;17.60;99.90;;;;;;5054242;28;20059;-83
2022/09/08 03:01:26;;;;;;;12.48;3.60;;;17.60;99.90;;;;;;5054567;28;20021;-82
2022/09/08 03:03:52;;;;;;;9.30;3.83;;;17.80;99.90;;;;;;5054743;28;20075;-80
2022/09/08 03:06:19;;;;;;;8.88;3.67;;;18.00;99.90;;;;;;5040894;28;20428;-80
2022/09/08 03:08:49;;;;;;;18.08;4.45;;;18.00;99.90;;;;;;5053256;28;20068;-79
2022/09/08 03:11:16;;;;;;;11.60;4.25;;;17.70;99.90;;;;;;5054403;28;20021;-79
2022/09/08 03:13:42;;;;;;;9.27;3.97;;;17.60;99.90;;;;;;5054266;28;20424;-79
2022/09/08 03:16:08;;;;;;;12.00;4.15;;;17.40;99.90;;;;;;5054353;28;20497;-80
2022/09/08 03:18:34;;;;;;;14.52;4.82;;;17.40;99.90;;;;;;5054176;28;20103;-82
2022/09/08 03:21:08;;;;;;;13.77;5.28;;;17.40;99.90;;;;;;5054459;28;20033;-82
2022/09/08 03:23:33;;;;;;;13.40;5.30;;;17.30;99.90;;;;;;5054142;28;20494;-82
2022/09/08 03:26:09;;;;;;;17.55;5.25;;;17.30;99.90;;;;;;5053992;28;20032;-80
2022/09/08 03:28:35;;;;;;;11.93;5.88;;;17.40;99.90;;;;;;5053709;28;20489;-83
2022/09/08 03:31:01;;;;;;;15.00;5.32;;;17.40;99.90;;;;;;5054357;28;20024;-82
2022/09/08 03:33:28;;;;;;;13.82;5.35;;;17.50;99.90;;;;;;5053781;28;20044;-82
2022/09/08 03:35:58;;;;;;;11.00;5.53;;;17.50;99.90;;;;;;5054241;28;20389;-79
2022/09/08 03:38:24;;;;;;;11.80;5.60;;;17.70;99.90;;;;;;5053562;28;20044;-80
2022/09/08 03:40:50;;;;;;;14.52;5.45;;;17.90;99.90;;;;;;5053565;28;20070;-80
2022/09/08 03:43:16;;;;;;;12.07;5.13;;;17.80;99.90;;;;;;5052437;28;20045;-80
2022/09/08 03:45:44;;;;;;;17.05;5.85;;;17.90;99.90;;;;;;5053886;28;20425;-81
2022/09/08 03:48:12;;;;;;;11.00;5.53;;;17.80;99.90;;;;;;5052483;28;20058;-81
2022/09/08 03:50:38;;;;;;;13.77;5.38;;;17.90;99.90;;;;;;5053726;28;20036;-80
2022/09/08 03:53:04;;;;;;;8.43;4.95;;;18.00;99.90;;;;;;5053790;28;20013;-84
2022/09/08 03:55:30;;;;;;;9.75;5.07;;;18.00;99.90;;;;;;5051833;28;20032;-81
2022/09/08 03:57:55;;;;;;;10.30;5.97;;;18.10;99.90;;;;;;5053039;28;20082;-80
2022/09/08 04:00:22;;;;;;;11.98;5.15;;;18.00;99.90;;;;;;5053645;28;20029;-80
2022/09/08 04:02:47;;;;;;;14.02;5.60;;;18.20;99.90;;;;;;5052042;28;20033;-83
2022/09/08 04:05:13;;;;;;;15.93;5.88;;;18.40;99.90;;;;;;5052315;28;20028;-80
2022/09/08 04:07:40;;;;;;;14.32;5.30;;;18.30;99.90;;;;;;5051971;28;20024;-81
2022/09/08 04:10:07;;;;;;;10.35;5.30;;;18.40;99.90;;;;;;5053255;28;20488;-84
2022/09/08 04:12:34;;;;;;;13.90;6.45;;;18.40;99.90;;;;;;5053016;28;20029;-83
2022/09/08 04:15:00;;;;;;;12.32;6.15;;;18.30;99.90;;;;;;5053258;28;20397;-82
2022/09/08 04:17:26;;;;;;;12.35;6.22;;;18.00;99.90;;;;;;5053291;28;20033;-84
2022/09/08 04:19:52;;;;;;;13.20;6.25;;;18.00;99.90;;;;;;5051630;28;20028;-84
2022/09/08 04:22:20;;;;;;;18.10;7.60;;;17.70;99.90;;;;;;5053017;28;20033;-83
2022/09/08 04:24:46;;;;;;;13.82;7.18;;;17.80;99.90;;;;;;5053148;28;20544;-83
2022/09/08 04:27:13;;;;;;;18.75;7.93;;;17.60;99.90;;;;;;5039240;28;20025;-83
2022/09/08 04:29:39;;;;;;;16.40;7.13;;;17.60;99.90;;;;;;5053009;28;20078;-84
2022/09/08 04:32:09;;;;;;;20.95;7.88;;;17.60;99.90;;;;;;5051861;28;20029;-83
2022/09/08 04:34:36;;;;;;;15.98;7.40;;;17.70;99.90;;;;;;5051746;28;20111;-83
2022/09/08 04:37:03;;;;;;;16.85;8.63;;;17.70;99.90;;;;;;5051834;28;20125;-81
2022/09/08 04:39:30;;;;;;;17.25;7.55;;;17.50;99.90;;;;;;5052736;28;20033;-81
2022/09/08 04:41:56;;;;;;;14.95;8.82;;;17.60;99.90;;;;;;5052398;28;20083;-81
2022/09/08 04:44:22;;;;;;;16.08;8.10;;;17.60;99.90;;;;;;5052682;28;20025;-81
2022/09/08 04:46:48;;;;;;;15.30;8.32;;;17.60;99.90;;;;;;5052775;28;20044;-81
2022/09/08 04:49:15;;;;;;;15.25;8.07;;;17.50;99.90;;;;;;5052577;28;20469;-81
2022/09/08 04:51:42;;;;;;;19.15;9.13;;;17.40;99.90;;;;;;5060624;28;20492;-79
2022/09/08 04:54:09;;;;;;;18.42;8.98;;;17.40;99.90;;;;;;5054630;28;20032;-81
2022/09/08 04:56:35;;;;;;;18.00;8.45;;;17.40;99.90;;;;;;5052399;28;20127;-81
2022/09/08 04:59:02;;;;;;;21.42;8.80;;;17.40;99.90;;;;;;5052461;28;20037;-80
2022/09/08 05:01:31;;;;;;;18.02;8.70;;;17.40;99.90;;;;;;5052435;28;20024;-79
2022/09/08 05:04:00;;;;;;;16.98;9.90;;;17.40;99.90;;;;;;5052454;28;20115;-81
2022/09/08 05:06:27;;;;;;;14.68;8.73;;;17.50;99.90;;;;;;5051113;28;20392;-80
2022/09/08 05:08:55;;;;;;;16.95;9.93;;;17.30;99.90;;;;;;5068001;28;20492;-82
2022/09/08 05:11:23;;;;;;;18.70;9.18;;;17.30;99.90;;;;;;5052017;28;20017;-81
2022/09/08 05:13:49;;;;;;;15.85;8.43;;;17.30;99.90;;;;;;5052460;28;20036;-81
2022/09/08 05:16:21;;;;;;;15.68;8.88;;;17.40;99.90;;;;;;5067178;28;20021;-79
2022/09/08 05:18:52;;;;;;;13.65;8.57;;;17.40;99.90;;;;;;5051715;28;20044;-79
2022/09/08 05:21:19;;;;;;;18.30;9.57;;;17.30;99.90;;;;;;5051634;28;20048;-81
2022/09/08 05:23:47;;;;;;;17.02;8.82;;;17.20;99.90;;;;;;5052118;28;20079;-80
2022/09/08 05:26:15;;;;;;;12.05;8.38;;;17.20;99.90;;;;;;5052538;28;20024;-81
2022/09/08 05:28:43;;;;;;;17.95;8.27;;;17.10;99.90;;;;;;5052164;28;20033;-80
2022/09/08 05:31:13;;;;;;;20.60;8.23;;;17.10;99.90;;;;;;5052246;28;20401;-81
2022/09/08 05:33:39;;;;;;;18.00;8.40;;;17.00;99.90;;;;;;5052265;28;20068;-80
2022/09/08 05:36:30;;;;;;;18.38;7.90;;;17.00;99.90;;;;;;5052265;28;20112;-80
2022/09/08 05:38:56;;;;;;;16.58;7.63;;;16.80;99.90;;;;;;5040421;28;20036;-81
2022/09/08 05:41:23;;;;;;;12.48;7.63;;;17.00;99.90;;;;;;5046880;28;20025;-81
2022/09/08 05:43:56;;;;;;;13.13;6.60;;;17.00;99.90;;;;;;5051018;28;20531;-81
2022/09/08 05:46:26;;;;;;;16.70;7.25;;;17.00;99.90;;;;;;5066603;28;20386;-81
2022/09/08 05:49:01;;;;;;;10.85;6.13;;;16.90;99.90;;;;;;5051179;28;20481;-80
2022/09/08 05:51:28;;;;;;;12.57;6.40;;;16.80;99.90;;;;;;5047076;28;20488;-81
2022/09/08 05:53:58;;;;;;;26.25;6.32;;;16.80;99.90;;;;;;5050581;28;20040;-80
2022/09/08 05:56:24;;;;;;;12.15;5.90;;;16.60;99.90;;;;;;5064110;28;20150;-81
2022/09/08 05:58:52;;;;;;;16.05;5.63;;;16.60;99.90;;;;;;5050323;28;20104;-79
2022/09/08 06:01:18;;;;;;;15.02;6.93;;;16.80;99.90;;;;;;5050515;28;20478;-80
2022/09/08 06:03:44;;;;;;;13.82;6.10;;;16.90;99.90;;;;;;5066759;28;20029;-77
2022/09/08 06:06:12;;;;;;;12.10;6.10;;;16.90;99.90;;;;;;5053858;28;20044;-81
2022/09/08 06:08:40;;;;;;;15.48;5.57;;;16.80;99.90;;;;;;5054600;28;20035;-81
2022/09/08 06:11:07;;;;;;;16.33;6.28;;;16.70;99.90;;;;;;5055994;28;20025;-81
2022/09/08 06:13:34;;;;;;;11.60;6.50;;;17.00;99.90;;;;;;5061033;28;20025;-81
2022/09/08 06:16:08;;;;;;;13.70;6.20;;;17.00;99.90;;;;;;5068216;28;20462;-81
2022/09/08 06:18:37;;;;;;;13.15;6.45;;;17.10;99.90;;;;;;5054911;28;20044;-81
2022/09/08 06:21:11;;;;;;;19.50;6.45;;;17.20;99.90;;;;;;5061825;28;20374;-81
2022/09/08 06:23:37;;;;;;;20.85;7.82;;;17.20;99.90;;;;;;5054139;28;20041;-81
2022/09/08 06:26:10;;;;;;;10.52;6.07;;;17.30;99.90;;;;;;5053076;28;20025;-80
2022/09/08 06:28:49;;;;;;;10.02;6.50;;;17.20;99.90;;;;;;5055486;28;20047;-80
2022/09/08 06:31:21;;;;;;;12.98;7.05;;;17.00;99.90;;;;;;5054385;28;20098;-80
2022/09/08 06:33:47;;;;;;;;;;;17.20;99.90;;;;;;5054645;28;20036;-79
2022/09/08 06:36:22;;;;;;;13.50;7.70;;;17.30;99.90;;;;;;5054105;28;19909;-81
2022/09/08 06:39:03;;;;;;;16.48;8.00;;;17.40;99.90;;;;;;5053058;28;20017;-80
2022/09/08 06:41:42;;;;;;;18.10;8.10;;;17.10;99.90;;;;;;5045604;28;20028;-80
2022/09/08 06:44:16;;;;;;;11.17;7.90;;;17.00;99.90;;;;;;5054052;28;20112;-81
2022/09/08 06:46:44;;;;;;;16.17;8.30;;;17.00;99.90;;;;;;5052708;28;20033;-81
2022/09/08 06:49:11;;;;;;;14.75;7.82;;;17.20;99.90;;;;;;5069766;28;20099;-80
2022/09/08 06:51:51;;;;;;;12.10;7.88;;;17.20;99.90;;;;;;5053371;28;20039;-78
2022/09/08 06:54:36;;;;;;;19.25;7.80;;;17.10;99.90;;;;;;5054016;28;20108;-80
2022/09/08 06:57:20;;;;;;;17.58;7.35;;;17.10;99.90;;;;;;5047615;28;20056;-80
2022/09/08 07:00:08;;;;;;;20.48;7.43;;;17.20;99.90;;;;;;5083221;28;20040;-79
2022/09/08 07:02:47;;;;;;;14.82;7.32;;;17.30;99.90;;;;;;5053427;28;20033;-79
2022/09/08 07:05:31;;;;;;;15.98;7.90;;;17.40;99.90;;;;;;5053114;28;20025;-79
2022/09/08 07:08:22;;;;;;;11.52;7.40;;;17.30;99.90;;;;;;5053490;28;20086;-80
2022/09/08 07:10:58;;;;;;;17.25;7.38;;;17.20;99.90;;;;;;5050283;28;20044;-82
2022/09/08 07:13:24;;;;;;;16.25;7.47;;;17.40;99.90;;;;;;5051792;28;20029;-84
2022/09/08 07:16:02;;;;;;;12.13;5.78;;;17.30;99.90;;;;;;5053593;28;20458;-85
2022/09/08 07:18:51;;;;;;;13.82;6.00;;;17.20;99.90;;;;;;5057871;28;20049;-84
2022/09/08 07:21:27;;;;;;;10.95;6.60;;;17.20;99.90;;;;;;5054180;28;20040;-84
2022/09/08 07:23:57;;;;;;;16.80;7.28;;;17.30;99.90;;;;;;5056470;28;20481;-83
2022/09/08 07:26:30;;;;;;;15.07;7.18;;;17.30;99.90;;;;;;5054691;28;20017;-82
2022/09/08 07:29:05;;;;;;;17.58;7.03;;;17.60;99.90;;;;;;5040558;28;20106;-85
2022/09/08 07:31:31;;;;;;;12.52;5.43;;;17.70;99.90;;;;;;5053337;28;20032;-84
2022/09/08 07:34:03;;;;;;;13.95;5.32;;;17.60;99.90;;;;;;5053151;28;20024;-84
2022/09/08 07:36:44;;;;;;;16.55;4.90;;;17.70;99.90;;;;;;5053102;28;20485;-85
2022/09/08 07:39:55;;;;;;;10.32;4.80;;;17.70;99.90;;;;;;5054311;28;20155;-85
2022/09/08 07:42:21;;;;;;;12.10;4.90;;;17.80;99.90;;;;;;5034898;28;20128;-84
2022/09/08 07:44:53;;;;;;;21.15;5.30;;;17.90;99.90;;;;;;5069128;28;20120;-84
2022/09/08 07:47:34;;;;;;;13.63;4.93;;;17.70;99.90;;;;;;5053771;28;20587;-85
2022/09/08 07:50:15;;;;;;;17.80;4.70;;;17.90;99.90;;;;;;5053857;28;20029;-84
2022/09/08 07:52:55;;;;;;;7.57;2.85;;;17.90;99.90;;;;;;5053759;28;20028;-84
2022/09/08 07:55:24;;;;;;;15.38;3.72;;;18.00;99.90;;;;;;5053862;28;20033;-84
2022/09/08 07:58:34;;;;;;;10.75;3.70;;;18.30;99.90;;;;;;5053586;28;20075;-85
2022/09/08 08:01:06;;;;;;;11.85;2.90;;;18.20;99.90;;;;;;4996862;28;20367;-85
2022/09/08 08:04:09;;;;;;;12.32;3.22;;;18.00;99.90;;;;;;5058988;28;20056;-85
2022/09/08 08:06:46;;;;;;;17.40;3.53;;;18.00;99.90;;;;;;5052992;28;20033;-85
2022/09/08 08:09:32;;;;;;;12.60;3.08;;;18.00;99.90;;;;;;5052214;28;20501;-84
2022/09/08 08:12:06;;;;;;;10.38;3.42;;;18.10;99.90;;;;;;5054282;28;20112;-84
2022/09/08 08:14:51;;;;;;;12.25;3.42;;;18.10;99.90;;;;;;5053587;28;20075;-82
2022/09/08 08:17:30;;;;;;;11.82;3.47;;;18.10;99.90;;;;;;5053851;28;20110;-85
2022/09/08 08:20:33;;;;;;;16.75;4.10;;;18.50;99.90;;;;;;5043256;28;20029;-85
2022/09/08 08:23:05;;;;;;;13.10;2.90;;;18.40;99.90;;;;;;5053324;28;20045;-85
2022/09/08 08:25:47;;;;;;;10.75;2.40;;;18.30;99.90;;;;;;5051805;28;20040;-85
2022/09/08 08:28:18;;;;;;;13.15;2.28;;;18.30;99.90;;;;;;5052655;28;20029;-85
2022/09/08 08:31:02;;;;;;;15.45;2.92;;;18.20;99.90;;;;;;5052892;28;20040;-85
2022/09/08 08:33:39;;;;;;;10.48;2.45;;;18.40;99.90;;;;;;5054423;28;20078;-85
2022/09/08 08:36:09;;;;;;;18.05;3.20;;;18.60;99.90;;;;;;5054395;28;20033;-86
2022/09/08 08:38:53;;;;;;;9.35;2.30;;;18.70;99.90;;;;;;5053330;28;20025;-85
2022/09/08 08:41:49;;;;;;;13.20;3.45;;;18.70;99.90;;;;;;5054378;28;20039;-85
2022/09/08 08:44:32;;;;;;;14.43;2.13;;;18.40;99.90;;;;;;5039868;28;20078;-85
2022/09/08 08:47:27;;;;;;;8.40;2.22;;;18.50;99.90;;;;;;5053222;28;20052;-84
2022/09/08 08:50:12;;;;;;;15.85;2.75;;;18.50;99.90;;;;;;5053261;28;20052;-85
2022/09/08 08:52:59;;;;;;;12.77;2.35;;;18.90;99.90;;;;;;5053199;28;20373;-84
2022/09/08 08:55:52;;;;;;;14.10;2.55;;;19.00;99.90;;;;;;5052374;28;20064;-84
2022/09/08 08:58:59;;;;;;;10.55;2.40;;;19.10;99.90;;;;;;5054696;28;20041;-85
2022/09/08 09:01:51;;;;;;;9.65;2.53;;;19.40;99.90;;;;;;5059360;28;20041;-86
2022/09/08 09:04:26;;;;;;;14.60;3.13;;;19.50;99.90;;;;;;5057944;28;20124;-86
2022/09/08 09:07:02;;;;;;;9.40;1.83;;;19.70;99.90;;;;;;5072948;28;20068;-85
2022/09/08 09:09:56;;;;;;;8.10;2.20;;;19.70;99.90;;;;;;5055764;28;20373;-85
2022/09/08 09:12:34;;;;;;;16.63;2.95;;;19.50;99.90;;;;;;5056605;28;20025;-85
2022/09/08 09:15:14;;;;;;;6.93;1.73;;;19.10;99.90;;;;;;5057270;28;20033;-87
2022/09/08 09:18:17;;;;;;;6.38;1.73;;;18.70;99.90;;;;;;5057480;28;20477;-86
2022/09/08 09:20:57;;;;;;;14.30;2.15;;;18.50;99.90;;;;;;5059039;28;20025;-86
2022/09/08 09:24:07;;;;;;;9.90;2.20;;;18.80;99.90;;;;;;5061358;28;20059;-87
2022/09/08 09:26:34;;;;;;;12.55;2.88;;;18.70;99.90;;;;;;5064762;28;20025;-86
2022/09/08 09:29:12;;;;;;;10.48;2.15;;;19.10;99.90;;;;;;5062415;28;20037;-85
2022/09/08 09:32:04;;;;;;;7.55;2.03;;;19.30;99.90;;;;;;5055421;28;20112;-86
2022/09/08 09:34:52;;;;;;;12.10;2.67;;;19.40;99.90;;;;;;5058613;28;20045;-86
2022/09/08 09:37:36;;;;;;;12.30;2.47;;;19.30;99.90;;;;;;5058204;28;20006;-86
2022/09/08 09:40:14;;;;;;;9.05;2.42;;;19.40;99.90;;;;;;5061857;28;20052;-87
2022/09/08 09:43:19;;;;;;;9.48;2.10;;;19.80;99.90;;;;;;5064153;28;20060;-85
2022/09/08 09:46:10;;;;;;;10.45;2.17;;;20.50;99.90;;;;;;5059406;28;20025;-86
2022/09/08 09:49:04;;;;;;;10.52;2.50;;;20.70;99.90;;;;;;5076708;28;20493;-86
2022/09/08 09:51:58;;;;;;;9.60;2.13;;;20.60;99.90;;;;;;5060450;28;20025;-87
2022/09/08 09:54:43;;;;;;;7.97;2.08;;;20.40;99.90;;;;;;5060375;28;20025;-85
2022/09/08 09:57:50;;;;;;;5.65;1.40;;;20.50;99.90;;;;;;5042499;28;20045;-85
2022/09/08 10:00:25;;;;;;;11.32;2.42;;;20.40;99.90;;;;;;5058755;28;20045;-85
2022/09/08 10:02:50;;;;;;;5.63;1.60;;;21.00;99.90;;;;;;5056514;28;20403;-85
2022/09/08 10:05:22;;;;;;;9.63;1.77;;;20.40;99.90;;;;;;5057150;28;20033;-86
2022/09/08 10:08:08;;;;;;;6.22;1.63;;;20.50;99.90;;;;;;5055903;28;20431;-86
2022/09/08 10:11:02;;;;;;;11.10;2.17;;;20.90;99.90;;;;;;5059482;28;20025;-87
2022/09/08 10:13:36;;;;;;;10.82;2.15;;;20.80;99.90;;;;;;5058162;28;20075;-87
2022/09/08 10:16:39;;;;;;;7.90;1.67;;;20.40;99.90;;;;;;5059410;28;20040;-87
2022/09/08 10:19:07;;;;;;;9.32;2.03;;;20.90;99.90;;;;;;5058243;28;20028;-85
2022/09/08 10:22:05;;;;;;;7.82;1.70;;;21.20;99.90;;;;;;5055445;28;20028;-86
2022/09/08 10:25:07;;;;;;;13.68;2.33;;;21.10;99.90;;;;;;5056385;28;20033;-87
2022/09/08 10:28:19;;;;;;;13.45;2.22;;;21.20;99.90;;;;;;5038157;28;20044;-86
2022/09/08 10:31:03;;;;;;;6.45;1.92;;;21.30;99.90;;;;;;5043383;28;20044;-86
2022/09/08 10:33:53;;;;;;;9.38;1.77;;;21.40;99.90;;;;;;5056699;28;20094;-85
2022/09/08 10:36:45;;;;;;;8.63;1.92;;;21.50;99.90;;;;;;5060936;28;20020;-86
2022/09/08 10:39:28;;;;;;;12.67;1.87;;;20.70;99.90;;;;;;5032870;28;20080;-86
2022/09/08 10:42:12;;;;;;;7.25;2.10;;;21.30;99.90;;;;;;5054227;28;20048;-85
2022/09/08 10:44:50;;;;;;;9.98;2.03;;;21.30;99.90;;;;;;5055917;28;20025;-86
2022/09/08 10:47:31;;;;;;;10.25;1.80;;;20.90;99.90;;;;;;5053614;28;20078;-86
2022/09/08 10:50:17;;;;;;;11.20;2.33;;;21.00;99.90;;;;;;5055743;28;20025;-85
2022/09/08 10:52:54;;;;;;;8.35;1.60;;;21.40;99.90;;;;;;5041548;28;20029;-86
2022/09/08 10:55:29;;;;;;;13.57;2.53;;;21.70;99.90;;;;;;5055577;28;20025;-87
2022/09/08 10:57:58;;;;;;;11.18;2.33;;;22.00;99.90;;;;;;5053805;28;20436;-86
2022/09/08 11:00:27;;;;;;;8.75;1.75;;;21.80;99.90;;;;;;5055564;28;20021;-86
2022/09/08 11:03:18;;;;;;;10.07;1.58;;;21.70;99.90;;;;;;5036659;28;20032;-86
2022/09/08 11:05:48;;;;;;;7.15;1.55;;;21.80;99.90;;;;;;5070882;28;20021;-86
2022/09/08 11:08:13;;;;;;;20.75;2.15;;;22.00;99.90;;;;;;5055329;28;20120;-87
2022/09/08 11:10:57;;;;;;;8.13;1.80;;;22.30;99.90;;;;;;5055376;28;20065;-87
2022/09/08 11:13:42;;;;;;;9.45;1.90;;;22.60;99.90;;;;;;5055295;28;20382;-87
2022/09/08 11:16:25;;;;;;;6.57;1.75;;;22.50;99.90;;;;;;5055404;28;20041;-85
2022/09/08 11:19:31;;;;;;;11.65;2.30;;;21.80;99.90;;;;;;5054940;28;20021;-85
2022/09/08 11:22:26;;;;;;;9.52;1.60;;;21.20;99.90;;;;;;5022891;28;20501;-85
2022/09/08 11:25:14;;;;;;;8.35;1.90;;;20.90;99.90;;;;;;5054690;28;20488;-87
2022/09/08 11:27:58;;;;;;;5.88;1.40;;;20.90;99.90;;;;;;5052828;28;20123;-85
2022/09/08 11:30:39;;;;;;;8.43;1.98;;;20.80;99.90;;;;;;5054753;28;20017;-85
2022/09/08 11:33:42;;;;;;;13.23;2.00;;;21.30;99.90;;;;;;5054214;28;20044;-84
2022/09/08 11:36:50;;;;;;;13.23;1.92;;;21.80;99.90;;;;;;5054230;28;20028;-84
2022/09/08 11:39:48;;;;;;;10.38;2.20;;;22.40;99.90;;;;;;5033909;28;20052;-83
2022/09/08 11:42:58;;;;;;;12.35;1.55;;;23.20;99.90;;;;;;5041773;28;20393;-85
2022/09/08 11:45:41;;;;;;;8.32;1.67;;;22.60;99.90;;;;;;5043250;28;20043;-84
2022/09/08 11:48:38;;;;;;;4.70;1.48;;;22.10;99.90;;;;;;5052506;28;20119;-84
2022/09/08 11:51:19;;;;;;;17.25;2.10;;;21.80;99.90;;;;;;5054010;28;20036;-87
2022/09/08 11:54:12;;;;;;;7.87;1.67;;;23.10;99.90;;;;;;5054119;28;20537;-84
2022/09/08 11:57:20;;;;;;;9.85;1.60;;;23.50;99.90;;;;;;5052428;28;20033;-84
2022/09/08 12:00:13;;;;;;;7.72;1.67;;;22.90;99.90;;;;;;5008555;28;20053;-84
2022/09/08 12:03:09;;;;;;;11.75;2.40;;;22.10;99.90;;;;;;5053568;28;20100;-85
2022/09/08 12:06:09;;;;;;;10.70;2.40;;;21.50;99.90;;;;;;5052607;28;20107;-85
2022/09/08 12:08:54;;;;;;;8.80;1.50;;;21.60;99.90;;;;;;5053836;28;20044;-84
2022/09/08 12:11:44;;;;;;;12.68;2.50;;;23.00;99.90;;;;;;5053467;28;20362;-84
2022/09/08 12:14:36;;;;;;;17.50;2.53;;;23.60;99.90;;;;;;5053571;28;20060;-84
2022/09/08 12:17:17;;;;;;;11.13;2.10;;;23.70;99.90;;;;;;5053473;28;20495;-84
2022/09/08 12:20:15;;;;;;;5.70;1.88;;;22.80;99.90;;;;;;5053382;28;20100;-83
2022/09/08 12:22:47;;;;;;;9.55;2.13;;;21.90;99.90;;;;;;5053496;28;20037;-84
2022/09/08 12:25:24;;;;;;;13.02;2.10;;;21.80;99.90;;;;;;5053286;28;20028;-84
2022/09/08 12:28:11;;;;;;;7.97;1.85;;;21.70;99.90;;;;;;5052171;28;20036;-83
2022/09/08 12:31:05;;;;;;;10.55;2.08;;;21.50;99.90;;;;;;5054102;28;20029;-84
2022/09/08 12:34:09;;;;;;;12.98;2.47;;;21.40;99.90;;;;;;5053583;28;20035;-84
2022/09/08 12:36:55;;;;;;;6.85;1.52;;;21.60;99.90;;;;;;5053113;28;20047;-84
2022/09/08 12:39:46;;;;;;;6.88;1.30;;;21.10;99.90;;;;;;5052777;28;20056;-85
2022/09/08 12:42:12;;;;;;;8.77;2.08;;;20.90;99.90;;;;;;5053145;28;20040;-85
2022/09/08 12:45:18;;;;;;;7.82;2.40;;;21.10;99.90;;;;;;5052701;28;20112;-84
2022/09/08 12:48:08;;;;;;;9.50;1.85;;;21.30;99.90;;;;;;5052988;28;20039;-84
2022/09/08 12:50:53;;;;;;;13.35;2.75;;;21.10;99.90;;;;;;5053105;28;20036;-84
2022/09/08 12:53:52;;;;;;;12.15;2.22;;;21.00;99.90;;;;;;5068239;28;20236;-84
2022/09/08 12:56:38;;;;;;;8.68;2.22;;;20.80;99.90;;;;;;5052445;28;20033;-84
2022/09/08 12:59:36;;;;;;;8.90;2.00;;;20.40;99.90;;;;;;5032037;28;20080;-84
2022/09/08 13:02:14;;;;;;;10.90;2.13;;;20.60;99.90;;;;;;5052860;28;20516;-85
2022/09/08 13:04:47;;;;;;;11.45;2.60;;;20.60;99.90;;;;;;5055524;28;20035;-85
2022/09/08 13:07:28;;;;;;;7.15;2.05;;;20.40;99.90;;;;;;5052775;28;20043;-86
2022/09/08 13:10:08;;;;;;;8.40;2.93;;;20.30;99.90;;;;;;5059579;28;20389;-84
2022/09/08 13:12:55;;;;;;;7.03;1.45;;;19.90;99.90;;;;;;5072682;28;20032;-84
2022/09/08 13:15:33;;;;;;;7.13;2.17;;;19.30;99.90;;;;;;5057978;28;20089;-85
2022/09/08 13:17:59;;;;;;;11.98;1.90;;;19.60;99.90;;;;;;5050492;28;20083;-74
2022/09/08 13:20:46;;;;;;;11.40;2.15;;;19.50;99.90;;;;;;5052153;28;20420;-75
2022/09/08 13:23:54;;;;;;;5.63;1.50;;;19.50;99.90;;;;;;5048839;28;20473;-74
2022/09/08 13:26:34;;;;;;;8.43;1.98;;;19.30;99.90;;;;;;5045040;28;20048;-74
2022/09/08 13:29:20;;;;;;;6.82;1.50;;;19.40;99.90;;;;;;5046580;28;20043;-74
2022/09/08 13:32:00;;;;;;;5.78;1.60;;;19.80;99.90;;;;;;5019014;28;20030;-74